Time;durP1;ratioP1;P1;durP2;ratioP2;P2;SDS_P1;SDS_P2;PMS_P1;PMS_P2;Temp;Humidity;BMP_temperature;BMP_pressure;BME280_temperature;BME280_humidity;BME280_pressure;Samples;Min_cycle;Max_cycle;Signal;HPM_P1;HPM_P2
2022/11/21 00:00:31;;;;;;;2.13;1.73;;;3.40;99.90;;;;;;6184074;23;20396;-85
2022/11/21 00:03:18;;;;;;;1.15;1.00;;;3.40;99.90;;;;;;6183731;23;20075;-84
2022/11/21 00:06:05;;;;;;;1.80;1.00;;;3.40;99.90;;;;;;6184094;23;20020;-86
2022/11/21 00:08:54;;;;;;;1.20;1.10;;;3.40;99.90;;;;;;6186439;23;20107;-86
2022/11/21 00:11:41;;;;;;;1.92;1.10;;;3.30;99.90;;;;;;6185827;23;20519;-85
2022/11/21 00:14:30;;;;;;;1.30;1.00;;;3.30;99.90;;;;;;6165033;23;20321;-85
2022/11/21 00:17:20;;;;;;;1.33;1.02;;;3.20;99.90;;;;;;6185765;23;20032;-84
2022/11/21 00:20:07;;;;;;;0.80;0.80;;;3.10;99.90;;;;;;6191443;23;20040;-86
2022/11/21 00:22:55;;;;;;;0.82;0.82;;;3.00;99.90;;;;;;6193683;23;20021;-85
2022/11/21 00:25:44;;;;;;;0.60;0.60;;;3.00;99.90;;;;;;6192977;23;20103;-82
2022/11/21 00:28:32;;;;;;;0.85;0.80;;;2.90;99.90;;;;;;6194940;23;20032;-84
2022/11/21 00:31:24;;;;;;;2.17;0.98;;;2.90;99.90;;;;;;6188321;23;20021;-84
2022/11/21 00:34:11;;;;;;;1.10;0.95;;;2.80;99.90;;;;;;6164212;23;20437;-83
2022/11/21 00:36:58;;;;;;;2.78;1.30;;;2.70;99.90;;;;;;6186685;23;20029;-83
2022/11/21 00:39:45;;;;;;;1.27;1.17;;;2.70;99.90;;;;;;6187620;23;20092;-83
2022/11/21 00:42:33;;;;;;;2.78;1.45;;;2.70;99.90;;;;;;6188039;23;20095;-84
2022/11/21 00:45:20;;;;;;;1.60;1.30;;;2.60;99.90;;;;;;6186941;23;20064;-84
2022/11/21 00:48:10;;;;;;;1.20;1.10;;;2.70;99.90;;;;;;6166245;23;20029;-83
2022/11/21 00:51:01;;;;;;;1.15;1.08;;;2.70;99.90;;;;;;6185860;23;20500;-85
2022/11/21 00:53:50;;;;;;;2.58;1.35;;;2.70;99.90;;;;;;6185159;23;20506;-85
2022/11/21 00:56:37;;;;;;;1.42;1.20;;;2.70;99.90;;;;;;6185044;23;20372;-85
2022/11/21 00:59:24;;;;;;;3.65;1.08;;;2.70;99.90;;;;;;6188221;23;20095;-83
2022/11/21 01:02:12;;;;;;;2.80;1.20;;;2.80;99.90;;;;;;6185255;23;20122;-84
2022/11/21 01:05:02;;;;;;;6.85;1.58;;;2.90;99.90;;;;;;6186035;23;20434;-84
2022/11/21 01:07:53;;;;;;;2.20;1.10;;;2.90;99.90;;;;;;6167504;23;20127;-84
2022/11/21 01:10:41;;;;;;;3.53;1.40;;;2.90;99.90;;;;;;6187120;23;20456;-84
2022/11/21 01:13:29;;;;;;;3.08;1.42;;;3.00;99.90;;;;;;6185788;23;20034;-85
2022/11/21 01:16:19;;;;;;;2.92;1.48;;;3.10;99.90;;;;;;6185569;23;20025;-84
2022/11/21 01:19:06;;;;;;;3.65;1.50;;;3.10;99.90;;;;;;6184378;23;20123;-84
2022/11/21 01:21:53;;;;;;;3.40;1.55;;;3.20;99.90;;;;;;6186094;23;20036;-84
2022/11/21 01:24:40;;;;;;;2.58;1.67;;;3.20;99.90;;;;;;6172238;23;20021;-84
2022/11/21 01:27:27;;;;;;;2.33;1.80;;;3.20;99.90;;;;;;6173568;23;20029;-85
2022/11/21 01:30:14;;;;;;;8.80;1.88;;;3.20;99.90;;;;;;6193690;23;20029;-85
2022/11/21 01:33:02;;;;;;;6.22;1.58;;;3.30;99.90;;;;;;6193989;23;20029;-85
2022/11/21 01:35:49;;;;;;;3.70;1.60;;;3.30;99.90;;;;;;6189146;23;20036;-84
2022/11/21 01:38:37;;;;;;;4.68;1.90;;;3.30;99.90;;;;;;6187042;23;20477;-85
2022/11/21 01:41:32;;;;;;;5.82;2.13;;;3.30;99.90;;;;;;6188301;23;20083;-85
2022/11/21 01:44:20;;;;;;;6.13;1.67;;;3.30;99.90;;;;;;6185035;23;20021;-85
2022/11/21 01:47:07;;;;;;;5.07;1.80;;;3.30;99.90;;;;;;6186966;23;20405;-85
2022/11/21 01:49:55;;;;;;;8.40;1.70;;;3.30;99.90;;;;;;6186599;23;20317;-86
2022/11/21 01:52:42;;;;;;;6.85;2.38;;;3.30;99.90;;;;;;6186756;23;20075;-83
2022/11/21 01:55:29;;;;;;;5.20;1.90;;;3.30;99.90;;;;;;6183283;23;20029;-83
2022/11/21 01:58:17;;;;;;;4.85;1.80;;;3.30;99.90;;;;;;6164146;23;20096;-86
2022/11/21 02:01:04;;;;;;;4.40;1.85;;;3.30;99.90;;;;;;6187085;23;20439;-84
2022/11/21 02:03:54;;;;;;;6.03;2.20;;;3.30;99.90;;;;;;6161263;23;20021;-85
2022/11/21 02:06:44;;;;;;;5.53;1.63;;;3.30;99.90;;;;;;6164397;23;20025;-85
2022/11/21 02:09:33;;;;;;;2.50;1.90;;;3.30;99.90;;;;;;6184486;23;20403;-82
2022/11/21 02:12:51;;;;;;;6.03;1.65;;;3.30;99.90;;;;;;6185386;23;20032;-83
2022/11/21 02:15:38;;;;;;;3.90;1.65;;;3.30;99.90;;;;;;6163647;23;20043;-82
2022/11/21 02:18:25;;;;;;;4.95;1.80;;;3.30;99.90;;;;;;6187254;23;20021;-84
2022/11/21 02:21:30;;;;;;;6.93;2.38;;;3.30;99.90;;;;;;6189608;23;20115;-84
2022/11/21 02:24:36;;;;;;;8.57;2.20;;;3.30;99.90;;;;;;6190064;23;20029;-83
2022/11/21 02:27:23;;;;;;;7.32;2.28;;;3.30;99.90;;;;;;6187736;23;20039;-84
2022/11/21 02:30:11;;;;;;;4.47;1.88;;;3.30;99.90;;;;;;6185673;23;20397;-83
2022/11/21 02:32:58;;;;;;;8.95;2.42;;;3.20;99.90;;;;;;6163081;23;20037;-83
2022/11/21 02:36:01;;;;;;;2.95;1.60;;;3.30;99.90;;;;;;6186395;23;20028;-83
2022/11/21 02:38:48;;;;;;;3.22;1.45;;;3.20;99.90;;;;;;6184458;23;20103;-82
2022/11/21 02:41:40;;;;;;;5.38;1.60;;;3.30;99.90;;;;;;6184115;23;20020;-84
2022/11/21 02:44:39;;;;;;;2.53;1.40;;;3.30;99.90;;;;;;6185482;23;20021;-83
2022/11/21 02:47:27;;;;;;;2.72;1.70;;;3.30;99.90;;;;;;6185011;23;20029;-83
2022/11/21 02:50:29;;;;;;;3.75;2.63;;;3.20;99.90;;;;;;6163849;23;20530;-83
2022/11/21 02:53:18;;;;;;;2.17;1.40;;;3.20;99.90;;;;;;6185408;23;20025;-85
2022/11/21 02:56:05;;;;;;;4.18;1.70;;;3.10;99.90;;;;;;6189353;23;20024;-84
2022/11/21 02:58:52;;;;;;;3.20;1.20;;;3.10;99.90;;;;;;6191221;23;20096;-84
2022/11/21 03:01:39;;;;;;;2.72;1.60;;;3.00;99.90;;;;;;6191029;23;20021;-84
2022/11/21 03:04:29;;;;;;;2.30;1.20;;;3.00;99.90;;;;;;6187560;23;20057;-81
2022/11/21 03:07:16;;;;;;;6.85;1.15;;;3.00;99.90;;;;;;6185546;23;20033;-83
2022/11/21 03:10:04;;;;;;;2.45;1.10;;;3.00;99.90;;;;;;6184895;23;20021;-83
2022/11/21 03:12:59;;;;;;;1.35;1.00;;;2.90;99.90;;;;;;6163921;23;20119;-85
2022/11/21 03:15:50;;;;;;;4.40;1.45;;;2.90;99.90;;;;;;6185407;23;20114;-83
2022/11/21 03:18:37;;;;;;;2.10;1.10;;;2.90;99.90;;;;;;6186187;23;20264;-84
2022/11/21 03:21:25;;;;;;;3.70;1.17;;;3.00;99.90;;;;;;6184944;23;20033;-84
2022/11/21 03:24:12;;;;;;;2.55;1.20;;;3.10;99.90;;;;;;6163532;23;20023;-83
2022/11/21 03:26:59;;;;;;;1.45;0.90;;;3.10;99.90;;;;;;6186770;23;20028;-85
2022/11/21 03:29:46;;;;;;;4.15;1.25;;;3.00;99.90;;;;;;6186504;23;20025;-85
2022/11/21 03:32:33;;;;;;;1.50;1.00;;;3.10;99.90;;;;;;6186168;23;20411;-83
2022/11/21 03:35:21;;;;;;;1.60;0.95;;;3.10;99.90;;;;;;6186571;23;20029;-86
2022/11/21 03:38:08;;;;;;;4.00;1.30;;;3.10;99.90;;;;;;6164813;23;20433;-84
2022/11/21 03:40:56;;;;;;;3.97;1.50;;;3.10;99.90;;;;;;6186010;23;20036;-86
2022/11/21 03:43:43;;;;;;;2.78;1.58;;;3.10;99.90;;;;;;6184342;23;20025;-84
2022/11/21 03:46:34;;;;;;;4.35;1.40;;;3.10;99.90;;;;;;6185309;23;20025;-85
2022/11/21 03:49:21;;;;;;;1.75;1.40;;;3.20;99.90;;;;;;6183533;23;20025;-84
2022/11/21 03:52:08;;;;;;;5.43;1.40;;;3.20;99.90;;;;;;6186139;23;20091;-84
2022/11/21 03:54:56;;;;;;;2.80;1.70;;;3.20;99.90;;;;;;6187469;23;20095;-86
2022/11/21 03:57:43;;;;;;;2.35;1.40;;;3.20;99.90;;;;;;6188310;23;20044;-84
2022/11/21 04:00:30;;;;;;;2.30;1.30;;;3.20;99.90;;;;;;6187212;23;20037;-86
2022/11/21 04:03:17;;;;;;;5.30;1.45;;;3.20;99.90;;;;;;6188154;23;20025;-85
2022/11/21 04:06:09;;;;;;;2.42;1.77;;;3.30;99.90;;;;;;6188346;23;20032;-84
2022/11/21 04:08:57;;;;;;;3.95;2.00;;;3.30;99.90;;;;;;6184865;23;20036;-83
2022/11/21 04:11:45;;;;;;;3.78;2.03;;;3.30;99.90;;;;;;6189252;23;20061;-85
2022/11/21 04:14:34;;;;;;;4.25;2.30;;;3.40;99.90;;;;;;6188796;23;20033;-83
2022/11/21 04:17:21;;;;;;;5.20;2.05;;;3.40;99.90;;;;;;6186738;23;20056;-83
2022/11/21 04:20:11;;;;;;;2.40;1.70;;;3.40;99.90;;;;;;6188059;23;20028;-84
2022/11/21 04:23:01;;;;;;;3.75;2.13;;;3.30;99.90;;;;;;6185161;23;20480;-83
2022/11/21 04:25:48;;;;;;;4.88;1.95;;;3.30;99.90;;;;;;6165107;23;20425;-84
2022/11/21 04:28:37;;;;;;;6.75;2.40;;;3.40;99.90;;;;;;6167744;23;20049;-83
2022/11/21 04:31:25;;;;;;;4.07;2.72;;;3.30;99.90;;;;;;6165802;23;20052;-85
2022/11/21 04:34:14;;;;;;;3.58;2.17;;;3.30;99.90;;;;;;6186795;23;20036;-85
2022/11/21 04:37:01;;;;;;;5.18;2.03;;;3.30;99.90;;;;;;6188970;23;20259;-86
2022/11/21 04:39:57;;;;;;;4.15;2.40;;;3.20;99.90;;;;;;6170060;23;20025;-85
2022/11/21 04:42:46;;;;;;;7.70;2.33;;;3.10;99.90;;;;;;6190925;23;20021;-84
2022/11/21 04:45:33;;;;;;;2.88;2.20;;;3.10;99.90;;;;;;6186281;23;20040;-84
2022/11/21 04:48:20;;;;;;;3.58;2.20;;;3.10;99.90;;;;;;6186433;23;20056;-85
2022/11/21 04:51:07;;;;;;;3.35;2.58;;;3.00;99.90;;;;;;6188491;23;20340;-83
2022/11/21 04:53:57;;;;;;;9.80;2.20;;;3.00;99.90;;;;;;6187715;23;20061;-85
2022/11/21 04:56:44;;;;;;;4.47;2.90;;;3.10;99.90;;;;;;6188614;23;20029;-85
2022/11/21 04:59:32;;;;;;;5.68;3.00;;;3.10;99.90;;;;;;6164255;23;20039;-84
2022/11/21 05:02:20;;;;;;;2.97;2.67;;;3.10;99.90;;;;;;6186777;23;20025;-85
2022/11/21 05:05:08;;;;;;;5.57;2.80;;;3.20;99.90;;;;;;6165289;23;20029;-85
2022/11/21 05:07:55;;;;;;;3.67;3.20;;;3.20;99.90;;;;;;6188263;23;20033;-85
2022/11/21 05:13:55;;;;;;;2.15;1.95;;;3.20;99.90;;;;;;6187033;23;20052;-87
2022/11/21 05:16:42;;;;;;;3.22;2.25;;;3.20;99.90;;;;;;6185585;23;20037;-85
2022/11/21 05:19:31;;;;;;;5.80;2.90;;;3.20;99.90;;;;;;6188943;23;20083;-87
2022/11/21 05:22:20;;;;;;;5.70;2.40;;;3.10;99.90;;;;;;6193051;23;20029;-85
2022/11/21 05:25:09;;;;;;;2.20;1.50;;;3.10;99.90;;;;;;6194474;23;20393;-84
2022/11/21 05:27:57;;;;;;;1.92;1.40;;;3.20;99.90;;;;;;6192469;23;20033;-85
2022/11/21 05:30:44;;;;;;;3.30;2.40;;;3.20;99.90;;;;;;6188615;23;20039;-85
2022/11/21 05:33:31;;;;;;;4.90;3.22;;;3.20;99.90;;;;;;6185156;23;20029;-81
2022/11/21 05:36:21;;;;;;;2.08;1.88;;;3.20;99.90;;;;;;6186562;23;20350;-81
2022/11/21 05:39:08;;;;;;;2.17;1.50;;;3.10;99.90;;;;;;6167643;23;20071;-82
2022/11/21 05:41:55;;;;;;;3.92;1.58;;;3.10;99.90;;;;;;6189439;23;20033;-82
2022/11/21 05:44:51;;;;;;;1.60;1.50;;;3.00;99.90;;;;;;6170673;23;20029;-81
2022/11/21 05:47:40;;;;;;;3.67;1.70;;;2.90;99.90;;;;;;6191929;23;20025;-81
2022/11/21 05:50:30;;;;;;;3.38;1.80;;;2.90;99.90;;;;;;6190969;23;20024;-84
2022/11/21 05:53:19;;;;;;;2.35;1.60;;;2.90;99.90;;;;;;6189353;23;20087;-82
2022/11/21 05:56:09;;;;;;;2.53;1.73;;;2.90;99.90;;;;;;6163392;23;20377;-83
2022/11/21 05:58:57;;;;;;;5.35;2.13;;;2.90;99.90;;;;;;6165431;23;20052;-81
2022/11/21 06:04:52;;;;;;;5.53;2.30;;;3.00;99.90;;;;;;6168383;23;20052;-82
2022/11/21 06:07:39;;;;;;;6.70;2.40;;;2.90;99.90;;;;;;6190550;23;20075;-83
2022/11/21 06:10:28;;;;;;;6.75;2.30;;;2.90;99.90;;;;;;6185980;23;20376;-81
2022/11/21 06:13:22;;;;;;;3.22;2.33;;;2.80;99.90;;;;;;6183500;23;20124;-82
2022/11/21 06:16:12;;;;;;;2.85;2.10;;;2.70;99.90;;;;;;6186220;23;20096;-88
2022/11/21 06:18:59;;;;;;;3.88;2.30;;;2.70;99.90;;;;;;6188966;23;20025;-87
2022/11/21 06:21:47;;;;;;;4.20;2.80;;;2.60;99.90;;;;;;6190360;23;20421;-88
2022/11/21 06:24:34;;;;;;;6.10;3.03;;;2.60;99.90;;;;;;6189252;23;20349;-86
2022/11/21 06:27:22;;;;;;;8.13;3.40;;;2.60;99.90;;;;;;6192051;23;20138;-88
2022/11/21 06:30:09;;;;;;;5.57;2.95;;;2.60;99.90;;;;;;6169847;23;20115;-86
2022/11/21 06:32:57;;;;;;;7.05;2.88;;;2.50;99.90;;;;;;6188902;23;20044;-86
2022/11/21 06:35:44;;;;;;;5.95;2.72;;;2.50;99.90;;;;;;6187497;23;20036;-86
2022/11/21 06:38:32;;;;;;;4.93;2.92;;;2.50;99.90;;;;;;6190052;23;20130;-85
2022/11/21 06:41:21;;;;;;;6.13;2.75;;;2.50;99.90;;;;;;6188599;23;20044;-88
2022/11/21 06:44:10;;;;;;;5.65;3.47;;;2.40;99.90;;;;;;6188220;23;20052;-88
2022/11/21 06:46:59;;;;;;;4.07;2.60;;;2.30;99.90;;;;;;6198855;23;20029;-86
2022/11/21 06:49:46;;;;;;;6.03;3.50;;;2.30;99.90;;;;;;6206817;23;20024;-85
2022/11/21 06:52:38;;;;;;;9.00;3.80;;;2.30;99.90;;;;;;6168626;23;20028;-85
2022/11/21 06:55:27;;;;;;;4.23;3.27;;;2.30;99.90;;;;;;6187803;23;20033;-88
2022/11/21 06:58:17;;;;;;;5.38;3.50;;;2.30;99.90;;;;;;6183583;23;20029;-89
2022/11/21 07:01:19;;;;;;;6.55;3.55;;;2.20;99.90;;;;;;6185253;23;20310;-85
2022/11/21 07:04:06;;;;;;;;;;;2.10;99.90;;;;;;6188001;23;20083;-86
2022/11/21 07:06:54;;;;;;;10.07;3.75;;;2.20;99.90;;;;;;6187743;23;19943;-86
2022/11/21 07:09:43;;;;;;;6.80;3.72;;;2.20;99.90;;;;;;6183838;23;20512;-85
2022/11/21 07:15:48;;;;;;;3.92;3.20;;;1.70;99.90;;;;;;6184940;23;20067;-85
2022/11/21 07:18:36;;;;;;;7.20;4.22;;;1.60;99.90;;;;;;6185090;23;20027;-83
2022/11/21 07:21:25;;;;;;;8.23;4.53;;;1.50;99.90;;;;;;6184902;23;20025;-82
2022/11/21 07:24:18;;;;;;;9.60;4.65;;;1.40;99.90;;;;;;6184584;23;20326;-84
2022/11/21 07:27:20;;;;;;;8.82;4.68;;;1.50;99.90;;;;;;6168255;23;20130;-84
2022/11/21 07:30:08;;;;;;;11.30;4.60;;;1.60;99.90;;;;;;6185971;23;20044;-83
2022/11/21 07:33:03;;;;;;;8.02;4.40;;;1.70;99.90;;;;;;6163272;23;20033;-84
2022/11/21 07:36:04;;;;;;;10.60;4.32;;;1.90;99.90;;;;;;6182509;23;20060;-84
2022/11/21 07:38:52;;;;;;;9.95;4.20;;;2.30;99.90;;;;;;6183120;23;20036;-82
2022/11/21 07:41:39;;;;;;;7.13;5.43;;;2.50;99.90;;;;;;6163220;23;20021;-82
2022/11/21 07:44:29;;;;;;;16.52;5.70;;;2.70;99.90;;;;;;6161473;23;20028;-83
2022/11/21 07:47:16;;;;;;;12.45;5.20;;;2.80;99.90;;;;;;6182755;23;20021;-82
2022/11/21 07:50:08;;;;;;;16.45;4.93;;;2.80;99.90;;;;;;6163902;23;20033;-83
2022/11/21 07:53:03;;;;;;;;;;;2.80;99.90;;;;;;6182626;23;20444;-83
2022/11/21 07:55:50;;;;;;;19.13;5.15;;;2.90;99.90;;;;;;6187095;22;19931;-83
2022/11/21 07:58:39;;;;;;;20.80;5.65;;;3.00;99.90;;;;;;6183425;23;20100;-82
2022/11/21 08:01:27;;;;;;;17.45;4.43;;;3.00;99.90;;;;;;6185776;23;20619;-84
2022/11/21 08:04:16;;;;;;;12.75;5.38;;;3.00;99.90;;;;;;6162964;23;20021;-83
2022/11/21 08:07:04;;;;;;;9.27;4.40;;;3.20;99.90;;;;;;6163030;23;20032;-83
2022/11/21 08:09:53;;;;;;;8.82;4.40;;;3.40;99.90;;;;;;6165113;23;20025;-84
2022/11/21 08:12:42;;;;;;;17.10;6.38;;;3.60;99.90;;;;;;6190059;23;20445;-82
2022/11/21 08:15:30;;;;;;;10.85;4.90;;;3.70;99.90;;;;;;6187389;23;20116;-83
2022/11/21 08:18:20;;;;;;;7.32;3.60;;;4.00;99.90;;;;;;6187711;23;20080;-83
2022/11/21 08:21:08;;;;;;;12.15;4.00;;;4.10;99.90;;;;;;6188195;23;20324;-85
2022/11/21 08:24:13;;;;;;;8.60;3.50;;;4.10;99.90;;;;;;6190302;23;20029;-88
2022/11/21 08:27:06;;;;;;;10.90;2.75;;;4.20;99.90;;;;;;6194307;23;20092;-84
2022/11/21 08:30:06;;;;;;;11.07;3.00;;;4.50;99.90;;;;;;6191155;23;20028;-87
2022/11/21 08:32:57;;;;;;;9.23;2.53;;;4.70;99.90;;;;;;6194041;23;20085;-86
2022/11/21 08:39:24;;;;;;;10.00;2.70;;;4.90;99.90;;;;;;6190474;23;20021;-88
2022/11/21 08:42:37;;;;;;;7.60;2.70;;;5.10;99.90;;;;;;6190622;23;20021;-86
2022/11/21 08:45:32;;;;;;;6.47;2.28;;;5.20;99.90;;;;;;6189537;23;20077;-84
2022/11/21 08:48:25;;;;;;;10.88;2.40;;;5.20;99.90;;;;;;6187893;23;20165;-85
2022/11/21 08:51:19;;;;;;;8.77;2.33;;;5.10;99.90;;;;;;6186405;23;20403;-85
2022/11/21 08:54:08;;;;;;;11.38;2.03;;;5.30;99.90;;;;;;6185937;23;20376;-86
2022/11/21 08:57:00;;;;;;;8.88;2.45;;;5.40;22.60;;;;;;6185342;23;20307;-86
2022/11/21 08:59:47;;;;;;;7.47;1.90;;;5.80;1.00;;;;;;6165083;23;20021;-86
2022/11/21 09:03:13;;;;;;;7.03;2.03;;;5.90;1.00;;;;;;6186240;23;20104;-86
2022/11/21 09:06:34;;;;;;;10.65;2.17;;;5.70;99.90;;;;;;6185975;23;20112;-84
2022/11/21 09:09:34;;;;;;;10.98;2.25;;;5.90;1.00;;;;;;6186531;23;20029;-83
2022/11/21 09:12:29;;;;;;;7.25;2.40;;;6.30;52.50;;;;;;6185386;23;20044;-83
2022/11/21 09:18:27;;;;;;;6.47;1.95;;;7.30;1.00;;;;;;6185434;23;20083;-84
2022/11/21 09:21:18;;;;;;;8.40;2.72;;;7.70;1.00;;;;;;6184453;23;20421;-84
2022/11/21 09:24:08;;;;;;;8.05;1.63;;;7.60;1.00;;;;;;6183366;23;20025;-83
2022/11/21 09:27:00;;;;;;;7.63;2.55;;;7.80;99.90;;;;;;6164376;23;20443;-83
2022/11/21 09:29:49;;;;;;;11.05;3.00;;;7.40;17.50;;;;;;6183901;23;20024;-83
2022/11/21 09:32:40;;;;;;;5.57;2.63;;;6.90;1.00;;;;;;6165435;23;20076;-83
2022/11/21 09:35:32;;;;;;;11.75;2.38;;;6.50;1.00;;;;;;6185378;23;20044;-84
2022/11/21 09:38:51;;;;;;;;;;;;;;;;;;;;;
2022/11/21 09:42:11;;;;;;;7.65;1.83;;;5.80;1.00;;;;;;6184740;23;20429;-83
2022/11/21 09:45:19;;;;;;;10.93;2.50;;;5.70;1.00;;;;;;6186009;23;20025;-82
2022/11/21 09:48:30;;;;;;;7.25;1.52;;;6.20;32.90;;;;;;6183601;23;20031;-85
2022/11/21 09:54:55;;;;;;;7.70;1.70;;;8.50;1.00;;;;;;6185985;23;20321;-82
2022/11/21 09:57:49;;;;;;;7.32;1.83;;;9.60;99.90;;;;;;6187014;23;20021;-84
2022/11/21 10:01:05;;;;;;;5.22;1.58;;;9.90;44.20;;;;;;6185204;23;20277;-84
2022/11/21 10:04:06;;;;;;;7.40;1.85;;;10.70;1.00;;;;;;6165661;23;20036;-82
2022/11/21 10:07:04;;;;;;;8.27;1.65;;;11.30;1.00;;;;;;6183581;23;20103;-80
2022/11/21 10:10:29;;;;;;;6.10;1.65;;;11.00;1.00;;;;;;6185126;23;20033;-81
2022/11/21 10:13:50;;;;;;;6.15;1.55;;;10.90;99.90;;;;;;6183632;23;20029;-82
2022/11/21 10:17:14;;;;;;;6.05;1.42;;;10.40;99.90;;;;;;6183564;23;20481;-82
2022/11/21 10:20:47;;;;;;;7.00;1.70;;;10.10;99.90;;;;;;6185581;23;20025;-84
2022/11/21 10:23:45;;;;;;;10.05;1.98;;;9.90;99.90;;;;;;6183794;23;20025;-84
2022/11/21 10:26:57;;;;;;;6.35;1.60;;;9.90;99.90;;;;;;6165107;23;20027;-82
2022/11/21 10:30:04;;;;;;;5.78;1.85;;;9.70;99.90;;;;;;6184738;23;20432;-84
2022/11/21 10:33:04;;;;;;;9.13;2.22;;;10.30;99.90;;;;;;6183148;23;20052;-83
2022/11/21 10:35:56;;;;;;;7.25;2.30;;;10.50;99.90;;;;;;6183564;23;20032;-85
2022/11/21 10:38:44;;;;;;;7.05;1.73;;;10.70;99.90;;;;;;6183566;23;20431;-84
2022/11/21 10:41:47;;;;;;;5.20;1.67;;;11.10;99.90;;;;;;6161461;23;20025;-84
2022/11/21 10:47:41;;;;;;;6.82;1.95;;;11.10;99.90;;;;;;6186663;23;19916;-82
2022/11/21 10:51:00;;;;;;;10.35;1.80;;;11.00;99.90;;;;;;6186176;23;20115;-82
2022/11/21 10:57:17;;;;;;;5.60;1.55;;;11.10;99.90;;;;;;6185142;23;20480;-83
2022/11/21 11:00:13;;;;;;;8.00;1.92;;;10.90;99.90;;;;;;6185130;23;20036;-81
2022/11/21 11:03:05;;;;;;;6.57;1.77;;;11.30;99.90;;;;;;6162447;23;20389;-82
2022/11/21 11:05:57;;;;;;;8.10;2.08;;;11.30;99.90;;;;;;6183179;23;20025;-85
2022/11/21 11:08:51;;;;;;;4.60;1.58;;;11.00;99.90;;;;;;6163463;23;20069;-84
2022/11/21 11:11:44;;;;;;;5.05;1.48;;;10.70;99.90;;;;;;6162484;23;20021;-84
2022/11/21 11:14:34;;;;;;;6.00;1.50;;;11.30;99.90;;;;;;6183743;23;20049;-83
2022/11/21 11:17:30;;;;;;;8.80;1.90;;;11.40;99.90;;;;;;6184825;23;20025;-82
2022/11/21 11:20:35;;;;;;;8.60;1.83;;;10.00;99.90;;;;;;6185394;23;20029;-82
2022/11/21 11:23:25;;;;;;;6.60;1.80;;;8.90;99.90;;;;;;6181458;23;20033;-84
2022/11/21 11:26:28;;;;;;;5.80;1.60;;;8.50;99.90;;;;;;6182607;23;20025;-83
2022/11/21 11:29:28;;;;;;;6.18;1.75;;;8.20;99.90;;;;;;6185222;23;20033;-83
2022/11/21 11:32:17;;;;;;;7.60;1.75;;;9.20;99.90;;;;;;6185916;23;20029;-82
2022/11/21 11:35:32;;;;;;;6.25;2.22;;;10.30;99.90;;;;;;6185435;23;20039;-82
2022/11/21 11:38:23;;;;;;;6.20;1.45;;;11.10;99.90;;;;;;6184236;23;20043;-83
2022/11/21 11:47:29;;;;;;;8.80;2.38;;;12.00;99.90;;;;;;6185272;23;20079;-82
2022/11/21 11:48:09;;;;;;;6.70;1.75;;;9.80;99.90;;;;;;6184405;23;20033;-80
2022/11/21 11:51:06;;;;;;;7.85;2.30;;;8.80;99.90;;;;;;6184683;23;20087;-85
2022/11/21 11:54:02;;;;;;;9.43;2.13;;;8.30;99.90;;;;;;6184031;23;20099;-84
2022/11/21 11:56:50;;;;;;;6.32;1.80;;;8.00;99.90;;;;;;6182008;23;20583;-84
2022/11/21 11:59:50;;;;;;;9.93;2.45;;;7.70;99.90;;;;;;6188310;23;20021;-83
2022/11/21 12:02:52;;;;;;;5.72;2.33;;;7.80;99.90;;;;;;6188494;23;20084;-83
2022/11/21 12:05:52;;;;;;;7.82;2.33;;;8.80;99.90;;;;;;6172792;23;20071;-81
2022/11/21 12:08:52;;;;;;;8.95;2.50;;;9.60;99.90;;;;;;6186853;23;20219;-83
2022/11/21 12:12:10;;;;;;;7.22;1.90;;;10.60;99.90;;;;;;6182543;23;20033;-82
2022/11/21 12:18:42;;;;;;;7.22;1.67;;;12.00;99.90;;;;;;6186471;23;20021;-84
2022/11/21 12:22:10;;;;;;;;;;;;;;;;;;;;;
2022/11/21 12:25:38;;;;;;;5.55;2.78;;;11.90;99.90;;;;;;6177058;23;20025;-83
2022/11/21 12:28:48;;;;;;;7.47;2.17;;;10.90;99.90;;;;;;6194554;23;20025;-82
2022/11/21 12:32:00;;;;;;;11.27;1.90;;;9.50;99.90;;;;;;6189166;23;20033;-83
2022/11/21 12:35:13;;;;;;;7.00;1.67;;;8.90;99.90;;;;;;6166466;23;20024;-82
2022/11/21 12:38:35;;;;;;;6.07;1.92;;;9.10;99.90;;;;;;6166228;23;20036;-82
2022/11/21 12:45:17;;;;;;;7.13;2.10;;;9.80;99.90;;;;;;6188639;23;20100;-83
2022/11/21 12:55:16;;;;;;;4.45;1.70;;;11.50;99.90;;;;;;6187975;23;20029;-83
2022/11/21 12:58:20;;;;;;;7.45;1.58;;;10.30;99.90;;;;;;6186097;23;20039;-83
2022/11/21 13:01:38;;;;;;;5.93;1.52;;;10.60;99.90;;;;;;6187962;23;20031;-83
2022/11/21 13:04:34;;;;;;;7.60;1.88;;;10.80;99.90;;;;;;6185269;23;20021;-83
2022/11/21 13:07:33;;;;;;;7.47;2.38;;;10.50;99.90;;;;;;6187634;23;20028;-83
2022/11/21 13:10:37;;;;;;;9.13;2.03;;;10.40;99.90;;;;;;6186556;23;20569;-84
2022/11/21 13:13:34;;;;;;;10.00;1.65;;;10.90;99.90;;;;;;6188004;23;20021;-82
2022/11/21 13:16:38;;;;;;;9.88;2.25;;;10.50;99.90;;;;;;6186226;23;20049;-82
2022/11/21 13:19:41;;;;;;;6.05;1.85;;;9.70;99.90;;;;;;6164893;23;20021;-83
2022/11/21 13:22:34;;;;;;;6.80;2.90;;;9.60;99.90;;;;;;6189354;23;20036;-83
2022/11/21 13:25:34;;;;;;;8.60;2.40;;;10.80;99.90;;;;;;6167259;23;20353;-83
2022/11/21 13:28:42;;;;;;;6.53;1.52;;;11.90;99.90;;;;;;6169397;23;20029;-84
2022/11/21 13:32:47;;;;;;;;;;;;;;;;;;;;;
2022/11/21 13:35:50;;;;;;;5.80;1.80;;;11.20;99.90;;;;;;6189841;23;20032;-83
2022/11/21 13:38:54;;;;;;;7.70;2.10;;;9.30;99.90;;;;;;6170823;23;20425;-85
2022/11/21 13:44:51;;;;;;;11.68;2.42;;;7.80;99.90;;;;;;6189694;23;20507;-84
2022/11/21 13:48:08;;;;;;;9.20;2.75;;;7.60;99.90;;;;;;6185722;23;20036;-83
2022/11/21 13:51:41;;;;;;;11.05;2.30;;;7.60;99.90;;;;;;6187245;23;20029;-83
2022/11/21 13:54:44;;;;;;;8.30;1.73;;;7.70;99.90;;;;;;6020773;23;20355;-86
2022/11/21 13:58:04;;;;;;;6.45;2.40;;;7.90;99.90;;;;;;6036977;23;20032;-85
2022/11/21 14:01:25;;;;;;;11.05;2.75;;;8.20;99.90;;;;;;6163749;23;20029;-86
2022/11/21 14:05:11;;;;;;;8.57;2.55;;;8.30;99.90;;;;;;6183985;23;20025;-84
2022/11/21 14:08:23;;;;;;;5.82;1.98;;;8.20;99.90;;;;;;6094314;23;20301;-85
2022/11/21 14:11:35;;;;;;;10.43;2.47;;;8.00;99.90;;;;;;6165515;23;20439;-85
2022/11/21 14:14:31;;;;;;;8.70;2.40;;;7.90;99.90;;;;;;6185395;23;20052;-84
2022/11/21 14:17:46;;;;;;;8.32;2.85;;;7.70;99.90;;;;;;6186010;23;20337;-83
2022/11/21 14:21:14;;;;;;;6.03;2.03;;;7.60;99.90;;;;;;6181331;23;20101;-84
2022/11/21 14:32:50;;;;;;;;;;;;;;;;;;;;;
2022/11/21 14:36:53;;;;;;;;;;;;;;;;;;;;;
2022/11/21 14:44:56;;;;;;;7.10;2.10;;;7.30;99.90;;;;;;5980965;24;20016;-85
2022/11/21 14:47:59;;;;;;;4.20;1.80;;;7.10;99.90;;;;;;6083945;23;20024;-85
2022/11/21 14:50:59;;;;;;;6.28;2.42;;;7.10;99.90;;;;;;6173284;23;20083;-86
2022/11/21 14:53:50;;;;;;;13.00;2.85;;;6.90;1.00;;;;;;6192725;23;20155;-83
2022/11/21 14:56:41;;;;;;;8.20;2.50;;;6.80;1.00;;;;;;6196228;23;20370;-84
2022/11/21 14:59:42;;;;;;;11.50;3.13;;;6.60;1.00;;;;;;6192930;23;20088;-84
2022/11/21 15:02:33;;;;;;;16.77;3.22;;;6.50;1.00;;;;;;6190986;23;20360;-83
2022/11/21 15:05:30;;;;;;;7.65;3.00;;;6.50;1.00;;;;;;6171559;23;20025;-82
2022/11/21 15:08:40;;;;;;;20.92;7.25;;;6.30;1.00;;;;;;6173697;23;20440;-81
2022/11/21 15:11:50;;;;;;;22.48;10.60;;;6.20;1.00;;;;;;6170110;23;20032;-84
2022/11/21 15:15:03;;;;;;;12.95;4.03;;;6.00;1.00;;;;;;6168577;23;20036;-84
2022/11/21 15:17:57;;;;;;;9.60;2.75;;;5.90;1.00;;;;;;6167555;23;20033;-86
2022/11/21 15:21:09;;;;;;;11.02;3.53;;;5.70;1.00;;;;;;6186067;23;20036;-83
2022/11/21 15:24:14;;;;;;;19.67;7.78;;;5.60;29.50;;;;;;6166332;23;20041;-84
2022/11/21 15:27:29;;;;;;;19.60;6.95;;;5.50;62.70;;;;;;6169638;23;20043;-84
2022/11/21 15:30:29;;;;;;;11.90;4.63;;;5.40;99.90;;;;;;6167343;23;20029;-84
2022/11/21 15:33:23;;;;;;;15.15;4.07;;;5.30;99.90;;;;;;6187686;23;20578;-84
2022/11/21 15:36:18;;;;;;;8.48;2.90;;;5.20;99.90;;;;;;6166303;23;20025;-83
2022/11/21 15:39:11;;;;;;;11.90;2.83;;;5.10;99.90;;;;;;6189627;23;20425;-83
2022/11/21 15:42:32;;;;;;;11.38;3.10;;;5.00;99.90;;;;;;6190090;23;20076;-85
2022/11/21 15:45:24;;;;;;;8.98;3.38;;;4.90;99.90;;;;;;6188776;23;20643;-83
2022/11/21 15:48:11;;;;;;;12.30;2.83;;;4.80;99.90;;;;;;6186578;23;20033;-83
2022/11/21 15:50:59;;;;;;;18.98;4.35;;;4.70;99.90;;;;;;6166612;23;20033;-84
2022/11/21 15:53:47;;;;;;;6.32;2.90;;;4.60;99.90;;;;;;6186724;23;20043;-83
2022/11/21 15:56:37;;;;;;;26.23;7.65;;;4.50;99.90;;;;;;6186655;23;20036;-82
2022/11/21 15:59:25;;;;;;;31.10;10.45;;;4.30;1.00;;;;;;6186888;23;20033;-84
2022/11/21 16:02:13;;;;;;;35.78;14.70;;;4.10;1.00;;;;;;6189134;23;20021;-84
2022/11/21 16:05:01;;;;;;;23.67;11.38;;;4.00;1.00;;;;;;6188005;23;20052;-83
2022/11/21 16:07:49;;;;;;;24.73;9.80;;;3.80;95.00;;;;;;6188075;23;20025;-85
2022/11/21 16:10:36;;;;;;;26.98;11.20;;;3.70;99.90;;;;;;6186102;23;20037;-85
2022/11/21 16:13:24;;;;;;;19.98;9.75;;;3.60;99.90;;;;;;6187583;23;20035;-85
2022/11/21 16:16:11;;;;;;;21.67;6.80;;;3.40;99.90;;;;;;6187572;23;20025;-84
2022/11/21 16:18:59;;;;;;;17.02;4.80;;;3.40;4.40;;;;;;6187453;23;20409;-84
2022/11/21 16:21:50;;;;;;;22.17;10.02;;;3.40;99.90;;;;;;6189565;23;20244;-85
2022/11/21 16:24:38;;;;;;;23.27;10.45;;;3.50;1.00;;;;;;6167335;23;20021;-85
2022/11/21 16:27:26;;;;;;;19.27;8.98;;;3.50;35.00;;;;;;6190164;23;20035;-84